Time;durP1;ratioP1;P1;durP2;ratioP2;P2;SDS_P1;SDS_P2;PMS_P1;PMS_P2;Temp;Humidity;BMP_temperature;BMP_pressure;BME280_temperature;BME280_humidity;BME280_pressure;Samples;Min_cycle;Max_cycle;Signal;HPM_P1;HPM_P2
2023/05/02 00:00:55;;;;;;;13.40;9.80;;;;;;;12.85;53.97;100757.56;4983254;28;20751;-72
2023/05/02 00:03:25;;;;;;;14.90;11.30;;;;;;;12.70;54.98;100767.91;4981403;28;20453;-71
2023/05/02 00:05:56;;;;;;;10.60;9.50;;;;;;;12.68;54.86;100764.59;4984636;28;20804;-72
2023/05/02 00:08:25;;;;;;;12.43;10.07;;;;;;;12.53;54.93;100760.28;4985951;28;20434;-69
2023/05/02 00:10:54;;;;;;;10.27;9.23;;;;;;;12.35;55.75;100759.31;4987089;28;20448;-70
2023/05/02 00:13:23;;;;;;;9.60;8.60;;;;;;;12.25;56.51;100762.50;4980570;28;20466;-72
2023/05/02 00:15:51;;;;;;;9.63;8.67;;;;;;;12.14;56.67;100761.34;4981974;28;20413;-70
2023/05/02 00:18:20;;;;;;;11.53;9.27;;;;;;;12.09;56.99;100757.59;4983947;28;20406;-72
2023/05/02 00:20:50;;;;;;;11.10;8.60;;;;;;;12.01;57.24;100755.09;4982446;28;20779;-71
2023/05/02 00:23:20;;;;;;;12.47;10.30;;;;;;;12.13;56.76;100758.81;4977600;28;20450;-74
2023/05/02 00:25:49;;;;;;;10.07;7.87;;;;;;;12.35;55.96;100757.44;4982007;28;20463;-69
2023/05/02 00:28:18;;;;;;;9.73;8.73;;;;;;;12.24;56.34;100758.16;4977063;28;20745;-71
2023/05/02 00:30:47;;;;;;;11.53;9.03;;;;;;;12.13;57.25;100753.41;4988398;28;20938;-71
2023/05/02 00:33:17;;;;;;;11.70;8.17;;;;;;;12.16;56.41;100748.38;4991383;28;20462;-72
2023/05/02 00:35:45;;;;;;;9.87;8.27;;;;;;;12.02;57.01;100752.19;4982362;28;20520;-70
2023/05/02 00:38:14;;;;;;;9.57;7.80;;;;;;;12.00;56.99;100754.31;4985094;28;20653;-70
2023/05/02 00:40:46;;;;;;;11.17;9.20;;;;;;;12.30;56.45;100754.56;4988074;28;20720;-72
2023/05/02 00:43:16;;;;;;;10.13;9.13;;;;;;;12.15;55.91;100762.97;4984257;28;20890;-73
2023/05/02 00:45:46;;;;;;;11.27;7.80;;;;;;;12.22;55.57;100752.09;4987134;28;20944;-72
2023/05/02 00:48:16;;;;;;;12.00;8.90;;;;;;;12.16;55.77;100755.66;4982071;28;20421;-70
2023/05/02 00:50:45;;;;;;;9.53;8.57;;;;;;;12.08;55.68;100762.19;4984165;28;20434;-69
2023/05/02 00:53:15;;;;;;;8.90;8.00;;;;;;;12.01;56.14;100755.09;4982371;28;20465;-71
2023/05/02 00:55:45;;;;;;;11.47;7.63;;;;;;;11.93;56.44;100766.19;4976982;28;20480;-71
2023/05/02 00:58:16;;;;;;;10.83;7.67;;;;;;;11.81;56.60;100757.09;4976285;28;20441;-70
2023/05/02 01:00:58;;;;;;;9.47;7.93;;;;;;;11.86;56.68;100763.50;4974515;28;20447;-71
2023/05/02 01:03:38;;;;;;;7.93;7.13;;;;;;;11.83;56.50;100753.09;4973382;28;20488;-71
2023/05/02 01:06:31;;;;;;;16.10;8.90;;;;;;;11.72;56.80;100756.44;4979545;28;20413;-72
2023/05/02 01:09:09;;;;;;;10.80;8.23;;;;;;;11.86;56.96;100757.28;4974658;28;20439;-69
2023/05/02 01:11:48;;;;;;;9.80;7.53;;;;;;;11.89;56.43;100754.13;4983565;28;20424;-71
2023/05/02 01:14:20;;;;;;;8.80;8.00;;;;;;;11.81;56.80;100754.38;4981315;28;20854;-70
2023/05/02 01:16:50;;;;;;;13.10;7.37;;;;;;;11.69;57.70;100756.88;4982495;28;20867;-73
2023/05/02 01:19:26;;;;;;;11.57;7.37;;;;;;;11.94;57.03;100760.56;4979435;28;20448;-73
2023/05/02 01:21:56;;;;;;;8.23;7.43;;;;;;;12.12;56.83;100768.84;4987758;28;20408;-71
2023/05/02 01:24:30;;;;;;;9.50;7.80;;;;;;;12.04;57.51;100765.53;4982475;28;20470;-72
2023/05/02 01:27:14;;;;;;;8.07;6.83;;;;;;;12.22;56.63;100753.97;4977441;28;20429;-73
2023/05/02 01:29:47;;;;;;;15.27;8.53;;;;;;;12.39;56.28;100761.38;5002171;28;20418;-70
2023/05/02 01:32:23;;;;;;;9.07;7.70;;;;;;;12.21;57.20;100764.00;4985033;28;20474;-73
2023/05/02 01:34:56;;;;;;;8.93;7.40;;;;;;;12.30;56.59;100764.56;4984374;28;20468;-71
2023/05/02 01:37:27;;;;;;;9.10;6.50;;;;;;;12.31;57.30;100772.50;4981330;28;20498;-71
2023/05/02 01:39:59;;;;;;;8.83;7.00;;;;;;;12.38;56.62;100773.31;4982241;28;20445;-73
2023/05/02 01:42:30;;;;;;;9.90;7.23;;;;;;;12.31;56.92;100772.50;4989487;28;20426;-72
2023/05/02 01:45:03;;;;;;;8.20;6.83;;;;;;;12.15;57.83;100776.53;4983200;28;20551;-72
2023/05/02 01:47:36;;;;;;;9.00;6.97;;;;;;;12.20;57.50;100781.31;4990289;28;20424;-71
2023/05/02 01:50:08;;;;;;;8.57;7.20;;;;;;;12.25;57.62;100786.94;4996197;28;20829;-71
2023/05/02 01:52:38;;;;;;;8.73;6.27;;;;;;;12.19;57.73;100791.34;4978899;28;20459;-69
2023/05/02 01:55:11;;;;;;;7.27;6.67;;;;;;;12.06;58.46;100791.38;4982561;28;20524;-72
2023/05/02 01:57:43;;;;;;;8.63;6.63;;;;;;;12.15;58.44;100797.44;4983696;28;20444;-71
2023/05/02 02:00:18;;;;;;;7.10;5.70;;;;;;;12.10;58.59;100789.09;4983370;28;20469;-70
2023/05/02 02:02:48;;;;;;;7.17;5.33;;;;;;;12.18;58.60;100788.84;4983005;28;20458;-70
2023/05/02 02:05:20;;;;;;;7.80;7.00;;;;;;;12.05;59.00;100794.34;4984649;28;20481;-72
2023/05/02 02:07:49;;;;;;;7.83;5.97;;;;;;;12.08;59.08;100788.47;4982199;28;20433;-70
2023/05/02 02:10:19;;;;;;;9.53;6.93;;;;;;;12.07;59.36;100801.19;4989374;28;20446;-74
2023/05/02 02:12:53;;;;;;;6.90;5.83;;;;;;;12.16;59.09;100804.50;4988611;28;20503;-72
2023/05/02 02:15:29;;;;;;;7.20;6.17;;;;;;;12.08;59.38;100805.59;4981410;28;20426;-71
2023/05/02 02:18:00;;;;;;;6.60;6.00;;;;;;;12.07;59.63;100803.06;4989479;28;20432;-72
2023/05/02 02:20:31;;;;;;;7.70;6.70;;;;;;;12.06;59.97;100812.25;4977476;28;20613;-70
2023/05/02 02:23:03;;;;;;;8.87;6.20;;;;;;;11.96;60.28;100814.56;4981961;28;20492;-71
2023/05/02 02:25:33;;;;;;;7.60;6.00;;;;;;;11.85;60.99;100817.97;4983205;28;20463;-72
2023/05/02 02:28:03;;;;;;;6.83;6.20;;;;;;;11.81;61.23;100825.69;4988411;28;20453;-70
2023/05/02 02:30:33;;;;;;;8.97;5.80;;;;;;;11.80;61.07;100817.75;4980696;28;20771;-70
2023/05/02 02:33:03;;;;;;;6.67;5.60;;;;;;;11.76;61.49;100815.47;4981806;28;20415;-70
2023/05/02 02:35:37;;;;;;;5.80;5.20;;;;;;;11.71;61.71;100815.22;4983922;28;20405;-73
2023/05/02 02:38:14;;;;;;;6.07;5.47;;;;;;;11.63;61.65;100820.88;4985165;28;21196;-72
2023/05/02 02:40:50;;;;;;;5.23;4.73;;;;;;;11.63;61.66;100834.44;4985815;28;20445;-71
2023/05/02 02:43:26;;;;;;;7.57;4.83;;;;;;;11.52;62.43;100836.97;4978223;28;21063;-70
2023/05/02 02:46:06;;;;;;;7.20;4.40;;;;;;;11.47;62.69;100843.00;4982553;28;20504;-70
2023/05/02 02:48:41;;;;;;;5.80;4.47;;;;;;;11.46;62.92;100848.63;4990196;28;20413;-70
2023/05/02 02:51:14;;;;;;;7.87;5.60;;;;;;;11.40;63.08;100850.28;4982257;28;20411;-72
2023/05/02 02:53:54;;;;;;;9.10;5.90;;;;;;;11.38;63.29;100852.38;4986591;28;20931;-72
2023/05/02 02:56:29;;;;;;;5.23;4.70;;;;;;;11.34;63.36;100856.53;4985743;28;20461;-69
2023/05/02 02:59:04;;;;;;;9.67;5.50;;;;;;;11.27;63.78;100859.28;4981507;28;20415;-71
2023/05/02 03:01:37;;;;;;;6.90;6.07;;;;;;;11.23;63.94;100866.13;4982934;28;20502;-70
2023/05/02 03:04:08;;;;;;;5.50;4.73;;;;;;;11.22;63.94;100863.63;4979481;28;20487;-70
2023/05/02 03:06:38;;;;;;;5.97;4.57;;;;;;;11.19;64.13;100880.28;4984192;28;20413;-71
2023/05/02 03:09:15;;;;;;;12.60;6.97;;;;;;;11.05;64.47;100882.13;4984375;28;20503;-72
2023/05/02 03:11:45;;;;;;;4.70;4.30;;;;;;;11.04;64.60;100882.34;4985387;28;20463;-71
2023/05/02 03:14:14;;;;;;;11.10;4.57;;;;;;;11.01;64.48;100885.47;4989092;28;20439;-72
2023/05/02 03:16:45;;;;;;;7.70;4.77;;;;;;;11.03;64.82;100892.34;4983878;28;20405;-70
2023/05/02 03:19:16;;;;;;;6.33;4.80;;;;;;;10.91;65.45;100891.28;4989465;28;20480;-72
2023/05/02 03:21:45;;;;;;;5.40;4.73;;;;;;;10.95;65.39;100902.53;4986588;28;20476;-72
2023/05/02 03:24:19;;;;;;;6.17;4.97;;;;;;;10.90;65.57;100893.16;4987698;28;20575;-71
2023/05/02 03:26:49;;;;;;;5.27;4.43;;;;;;;10.81;65.87;100910.63;4996751;28;20448;-73
2023/05/02 03:29:24;;;;;;;5.63;4.80;;;;;;;10.75;66.40;100914.13;4992836;28;20511;-69
2023/05/02 03:31:58;;;;;;;7.00;4.27;;;;;;;10.71;66.56;100912.88;4978845;28;20426;-73
2023/05/02 03:34:28;;;;;;;7.20;4.97;;;;;;;10.60;67.33;100924.25;4984960;28;20884;-71
2023/05/02 03:36:58;;;;;;;8.73;4.13;;;;;;;10.60;67.47;100924.25;4992149;28;20455;-73
2023/05/02 03:39:27;;;;;;;6.30;4.73;;;;;;;10.67;67.52;100927.00;4987679;28;20420;-73
2023/05/02 03:41:56;;;;;;;4.80;3.73;;;;;;;10.62;67.54;100916.78;4991954;28;20403;-72
2023/05/02 03:44:26;;;;;;;4.90;4.40;;;;;;;10.63;67.82;100928.44;4987005;28;20507;-73
2023/05/02 03:46:58;;;;;;;9.50;4.60;;;;;;;10.71;67.32;100930.97;4987945;28;20435;-72
2023/05/02 03:49:29;;;;;;;5.30;4.80;;;;;;;10.60;67.83;100940.50;4987612;28;20460;-73
2023/05/02 03:51:58;;;;;;;11.70;5.53;;;;;;;10.64;68.19;100941.78;4992607;28;20935;-70
2023/05/02 03:54:33;;;;;;;8.70;4.87;;;;;;;10.71;67.89;100937.22;4982603;28;20468;-71
2023/05/02 03:57:03;;;;;;;4.67;4.23;;;;;;;10.62;68.13;100941.16;4979827;28;20419;-71
2023/05/02 03:59:34;;;;;;;6.80;4.60;;;;;;;10.58;69.21;100933.63;4988567;28;20420;-70
2023/05/02 04:02:12;;;;;;;6.27;4.90;;;;;;;10.75;68.10;100935.78;4982342;28;20448;-72
2023/05/02 04:04:47;;;;;;;14.23;6.07;;;;;;;10.79;68.04;100950.59;4982256;28;20474;-70
2023/05/02 04:07:20;;;;;;;10.00;5.80;;;;;;;10.77;68.30;100958.09;4986556;28;20774;-71
2023/05/02 04:10:15;;;;;;;5.90;4.50;;;;;;;10.84;68.33;100950.00;4986094;28;20202;-71
2023/05/02 04:12:48;;;;;;;9.03;5.47;;;;;;;10.85;68.64;100955.19;4985162;28;20445;-71
2023/05/02 04:15:19;;;;;;;7.55;4.80;;;;;;;10.88;68.81;100956.66;4983171;28;21118;-72
2023/05/02 04:17:49;;;;;;;6.27;5.67;;;;;;;11.03;68.47;100959.22;4980987;28;20573;-71
2023/05/02 04:20:22;;;;;;;7.70;4.53;;;;;;;11.10;68.51;100968.19;4988764;28;20449;-69
2023/05/02 04:22:54;;;;;;;9.73;5.50;;;;;;;11.22;67.93;100971.97;4983912;28;20994;-73
2023/05/02 04:25:23;;;;;;;9.80;5.80;;;;;;;11.21;68.14;100970.31;4980112;28;20468;-72
2023/05/02 04:27:55;;;;;;;4.77;4.37;;;;;;;11.27;67.82;100980.34;4981284;28;20966;-72
2023/05/02 04:30:26;;;;;;;11.00;5.40;;;;;;;11.31;67.58;100981.59;4981315;28;20436;-70
2023/05/02 04:33:03;;;;;;;5.00;4.27;;;;;;;11.34;67.67;100992.84;4983459;28;20426;-70
2023/05/02 04:35:40;;;;;;;8.30;4.20;;;;;;;11.51;67.61;100996.03;4983021;28;20442;-71
2023/05/02 04:38:12;;;;;;;5.60;5.03;;;;;;;11.81;66.73;100992.97;4984427;28;20440;-70
2023/05/02 04:40:43;;;;;;;7.73;4.60;;;;;;;11.75;66.18;100989.19;4976449;28;20431;-74
2023/05/02 04:43:12;;;;;;;7.47;4.87;;;;;;;11.94;65.73;100995.66;4973889;28;20513;-71
2023/05/02 04:45:49;;;;;;;6.43;4.70;;;;;;;12.20;64.70;100996.47;4985524;28;20933;-71
2023/05/02 04:48:26;;;;;;;7.57;5.33;;;;;;;12.38;64.11;100995.84;4985270;28;20847;-71
2023/05/02 04:50:57;;;;;;;5.47;4.50;;;;;;;12.37;63.52;100998.75;4987201;28;20478;-72
2023/05/02 04:53:27;;;;;;;10.27;5.57;;;;;;;12.81;62.17;101017.03;4986955;28;21077;-72
2023/05/02 04:55:57;;;;;;;4.67;3.80;;;;;;;12.74;62.25;101013.50;4989114;28;20401;-72
2023/05/02 04:58:28;;;;;;;5.20;4.10;;;;;;;12.79;62.21;101019.13;4981256;28;20456;-71
2023/05/02 05:01:02;;;;;;;5.40;4.07;;;;;;;12.56;62.14;101023.16;4984276;28;20439;-69
2023/05/02 05:03:32;;;;;;;12.60;3.93;;;;;;;12.67;62.08;101027.09;4986745;28;20434;-72
2023/05/02 05:06:03;;;;;;;8.10;5.10;;;;;;;12.40;62.68;101022.75;4979894;28;20472;-72
2023/05/02 05:08:33;;;;;;;7.50;4.70;;;;;;;12.51;62.08;101030.25;4979635;28;20509;-73
2023/05/02 05:11:03;;;;;;;6.43;4.83;;;;;;;12.45;62.84;101031.94;4980824;28;20475;-70
2023/05/02 05:13:34;;;;;;;8.30;4.20;;;;;;;12.25;63.19;101039.25;4981140;28;20450;-72
2023/05/02 05:16:03;;;;;;;5.63;5.00;;;;;;;12.70;61.66;101044.84;4979959;28;20450;-71
2023/05/02 05:18:39;;;;;;;7.30;4.10;;;;;;;12.64;61.73;101049.22;4986023;28;20512;-72
2023/05/02 05:21:12;;;;;;;9.00;5.07;;;;;;;12.03;63.78;101051.38;4982818;28;20800;-72
2023/05/02 05:23:44;;;;;;;6.40;4.60;;;;;;;12.03;64.17;101054.09;4992647;28;20548;-70
2023/05/02 05:26:19;;;;;;;4.53;4.13;;;;;;;11.91;64.47;101058.47;4978899;28;20557;-71
2023/05/02 05:28:50;;;;;;;6.60;4.13;;;;;;;11.79;65.27;101062.81;4983077;28;20472;-72
2023/05/02 05:31:22;;;;;;;8.50;4.23;;;;;;;11.76;65.48;101055.94;4984451;28;20462;-70
2023/05/02 05:33:55;;;;;;;6.20;5.03;;;;;;;11.71;65.85;101070.06;4981111;28;20791;-72
2023/05/02 05:36:27;;;;;;;6.90;5.27;;;;;;;11.97;65.44;101073.88;4979396;28;20415;-74
2023/05/02 05:38:57;;;;;;;8.50;5.33;;;;;;;12.03;64.96;101073.91;4982989;28;20991;-70
2023/05/02 05:41:26;;;;;;;5.90;5.30;;;;;;;12.21;65.32;101081.41;5062661;23;20459;-80
2023/05/02 05:44:02;;;;;;;5.97;4.80;;;;;;;12.26;64.70;101081.63;5015265;28;20407;-82
2023/05/02 05:46:32;;;;;;;6.70;5.20;;;;;;;12.28;64.71;101087.69;5130311;23;20500;-70
2023/05/02 05:49:05;;;;;;;5.97;5.37;;;;;;;12.46;64.83;101096.03;4980560;28;20959;-70
2023/05/02 05:51:36;;;;;;;8.40;5.27;;;;;;;12.72;63.84;101086.19;4985059;28;20495;-69
2023/05/02 05:54:06;;;;;;;8.47;5.30;;;;;;;12.80;63.65;101096.84;4986170;28;20430;-71
2023/05/02 05:56:35;;;;;;;8.23;6.00;;;;;;;12.81;64.04;101102.06;4992050;28;20416;-70
2023/05/02 05:59:12;;;;;;;10.10;5.13;;;;;;;12.74;64.01;101122.09;4990912;28;20558;-71
2023/05/02 06:01:41;;;;;;;9.57;5.13;;;;;;;12.61;64.48;101122.97;4987486;28;20638;-71
2023/05/02 06:04:11;;;;;;;8.17;5.90;;;;;;;12.75;64.20;101121.06;5009713;28;20436;-72
2023/05/02 06:06:45;;;;;;;7.43;6.27;;;;;;;12.76;64.24;101125.47;5000807;28;20469;-71
2023/05/02 06:09:14;;;;;;;8.50;5.53;;;;;;;12.84;64.30;101128.78;5002615;28;20448;-71
2023/05/02 06:11:43;;;;;;;6.73;5.00;;;;;;;12.84;64.59;101136.09;5004903;28;20523;-71
2023/05/02 06:14:13;;;;;;;9.43;6.03;;;;;;;13.09;64.13;101145.25;4996799;28;20501;-70
2023/05/02 06:16:42;;;;;;;9.27;6.23;;;;;;;13.11;64.26;101142.34;5002590;28;20570;-72
2023/05/02 06:19:13;;;;;;;8.00;6.00;;;;;;;13.44;63.75;101152.09;4998147;28;20424;-71
2023/05/02 06:21:44;;;;;;;8.03;7.07;;;;;;;13.62;62.77;101153.25;4990547;28;21011;-70
2023/05/02 06:24:13;;;;;;;14.33;6.03;;;;;;;13.28;64.70;101166.13;4993196;28;20464;-69
2023/05/02 06:26:42;;;;;;;12.50;8.10;;;;;;;13.27;65.46;101175.34;4992510;28;20502;-71
2023/05/02 06:29:11;;;;;;;13.10;7.13;;;;;;;13.23;66.08;101178.69;4991152;28;20541;-70
2023/05/02 06:31:44;;;;;;;11.30;8.23;;;;;;;13.21;66.32;101170.78;4994413;28;20462;-71
2023/05/02 06:34:14;;;;;;;10.03;6.53;;;;;;;12.97;67.08;101183.09;4995816;28;20758;-71
2023/05/02 06:36:44;;;;;;;13.47;9.20;;;;;;;12.72;68.20;101189.38;4996866;28;20899;-70
2023/05/02 06:39:13;;;;;;;13.30;9.80;;;;;;;12.51;68.94;101190.41;4996152;28;20919;-70
2023/05/02 06:41:43;;;;;;;11.10;9.13;;;;;;;12.49;69.52;101201.47;4993639;28;20430;-70
2023/05/02 06:44:17;;;;;;;15.83;10.90;;;;;;;12.67;69.57;101200.88;4990050;28;20532;-70
2023/05/02 06:46:46;;;;;;;18.27;10.23;;;;;;;12.56;69.80;101206.91;4984966;28;20451;-70
2023/05/02 06:49:15;;;;;;;16.00;7.00;;;;;;;12.48;69.97;101205.25;4993853;28;20444;-70
2023/05/02 06:51:45;;;;;;;9.83;7.93;;;;;;;12.74;69.32;101214.44;4992773;28;20479;-71
2023/05/02 06:54:14;;;;;;;10.03;8.57;;;;;;;12.85;68.93;101205.66;4995980;28;20791;-70
2023/05/02 06:56:44;;;;;;;10.17;8.07;;;;;;;12.92;68.91;101211.94;4994053;28;20432;-70
2023/05/02 06:59:15;;;;;;;10.43;7.60;;;;;;;12.91;68.94;101223.84;4995812;28;20760;-70
2023/05/02 07:01:44;;;;;;;10.57;7.30;;;;;;;12.84;69.83;101217.56;4995892;28;20432;-70
2023/05/02 07:04:14;;;;;;;8.93;7.90;;;;;;;12.78;69.75;101221.16;4997049;28;20555;-70
2023/05/02 07:06:43;;;;;;;10.70;7.13;;;;;;;13.06;69.06;101229.91;4995588;28;20546;-70
2023/05/02 07:09:14;;;;;;;13.90;8.23;;;;;;;13.73;66.75;101234.19;4994527;28;20501;-70
2023/05/02 07:11:43;;;;;;;14.90;8.50;;;;;;;13.39;67.67;101244.31;4996358;28;20526;-70
2023/05/02 07:14:12;;;;;;;10.33;8.80;;;;;;;13.46;67.82;101244.28;4999026;28;21021;-71
2023/05/02 07:16:42;;;;;;;9.07;6.83;;;;;;;13.79;66.91;101238.78;4995665;28;20462;-70
2023/05/02 07:19:11;;;;;;;13.87;8.30;;;;;;;14.06;66.17;101245.75;4995099;28;20990;-71
2023/05/02 07:21:41;;;;;;;9.97;8.17;;;;;;;13.81;66.99;101252.97;4996380;28;20493;-70
2023/05/02 07:24:10;;;;;;;10.07;7.00;;;;;;;13.75;66.90;101251.09;4993117;28;20884;-71
2023/05/02 07:26:40;;;;;;;11.03;7.70;;;;;;;13.95;66.84;101254.59;4994279;28;20441;-71
2023/05/02 07:29:09;;;;;;;7.87;5.80;;;;;;;14.10;65.64;101257.88;4995284;28;20460;-71
2023/05/02 07:31:39;;;;;;;10.87;8.23;;;;;;;14.02;65.98;101255.41;4996018;28;20460;-73
2023/05/02 07:34:09;;;;;;;10.27;7.57;;;;;;;14.09;66.01;101261.66;5002150;28;20814;-71
2023/05/02 07:36:39;;;;;;;7.57;6.70;;;;;;;14.29;65.53;101254.22;4997833;28;20426;-72
2023/05/02 07:39:08;;;;;;;8.70;7.33;;;;;;;14.55;64.08;101255.16;5000121;28;20430;-71
2023/05/02 07:41:39;;;;;;;9.07;6.17;;;;;;;14.56;64.17;101259.56;4998335;28;20432;-71
2023/05/02 07:44:15;;;;;;;13.73;8.07;;;;;;;14.90;63.34;101264.56;4990861;28;20655;-70
2023/05/02 07:46:44;;;;;;;13.00;7.93;;;;;;;14.98;62.61;101268.88;4994879;28;20487;-71
2023/05/02 07:49:14;;;;;;;14.30;9.03;;;;;;;14.87;63.25;101275.88;4988071;28;20427;-71
2023/05/02 07:51:44;;;;;;;13.63;7.17;;;;;;;14.98;62.93;101286.06;4985664;28;20472;-69
2023/05/02 07:54:16;;;;;;;8.50;5.00;;;;;;;14.75;63.53;101283.09;4995693;28;20432;-70
2023/05/02 07:56:47;;;;;;;9.40;6.20;;;;;;;14.66;64.00;101278.97;4994516;28;20979;-71
2023/05/02 07:59:16;;;;;;;8.03;5.70;;;;;;;14.41;64.87;101292.53;4994032;28;20418;-70
2023/05/02 08:01:45;;;;;;;9.13;5.70;;;;;;;14.64;64.93;101275.63;4993956;28;20430;-70
2023/05/02 08:04:15;;;;;;;8.07;6.30;;;;;;;14.74;63.73;101289.59;4990445;28;20575;-72
2023/05/02 08:06:45;;;;;;;7.60;6.00;;;;;;;14.42;64.74;101288.75;4983561;28;20482;-73
2023/05/02 08:09:14;;;;;;;7.37;5.63;;;;;;;14.52;64.92;101296.47;4988651;28;20413;-72
2023/05/02 08:11:44;;;;;;;6.87;4.73;;;;;;;14.88;62.76;101293.91;5007400;28;20588;-72
2023/05/02 08:14:15;;;;;;;5.40;4.17;;;;;;;14.66;62.57;101295.31;5000224;28;20438;-72
2023/05/02 08:16:44;;;;;;;4.50;4.07;;;;;;;14.68;62.98;101298.66;4993828;28;20413;-72
2023/05/02 08:19:15;;;;;;;4.80;3.47;;;;;;;14.55;63.44;101309.63;4999241;28;20488;-71
2023/05/02 08:21:44;;;;;;;6.13;3.60;;;;;;;14.76;63.42;101306.56;4999815;28;20950;-72
2023/05/02 08:24:13;;;;;;;6.00;4.00;;;;;;;14.96;62.86;101315.44;5001435;28;20503;-71
2023/05/02 08:30:16;;;;;;;6.27;3.83;;;;;;;14.38;65.14;101328.34;4994497;28;20473;-70
2023/05/02 08:32:46;;;;;;;7.50;4.07;;;;;;;14.23;65.83;101328.59;4995330;28;20433;-72
2023/05/02 08:35:15;;;;;;;5.87;4.60;;;;;;;14.26;66.58;101327.34;4989852;28;20472;-71
2023/05/02 08:37:45;;;;;;;11.03;5.67;;;;;;;14.32;66.78;101340.94;4994333;28;20428;-71
2023/05/02 08:40:17;;;;;;;7.77;5.70;;;;;;;14.22;67.08;101345.16;4995292;28;20427;-72
2023/05/02 08:43:02;;;;;;;6.80;5.07;;;;;;;14.21;67.44;101351.63;4995880;28;20405;-70
2023/05/02 08:45:37;;;;;;;7.70;5.07;;;;;;;13.75;68.07;101347.16;4994334;28;20437;-72
2023/05/02 08:48:09;;;;;;;6.50;4.23;;;;;;;13.87;68.51;101344.63;4996559;28;20504;-71
2023/05/02 08:50:40;;;;;;;8.20;5.33;;;;;;;13.76;68.53;101356.97;4984995;28;20440;-70
2023/05/02 08:53:11;;;;;;;6.10;4.70;;;;;;;13.85;68.69;101354.88;4993036;28;20457;-72
2023/05/02 08:55:41;;;;;;;6.20;5.20;;;;;;;13.71;69.17;101355.94;4987209;28;20442;-71
2023/05/02 08:58:12;;;;;;;7.63;5.47;;;;;;;13.86;69.08;101364.72;5001321;28;20904;-70
2023/05/02 09:00:48;;;;;;;7.07;5.90;;;;;;;14.05;68.86;101363.81;4990839;28;20457;-71
2023/05/02 09:03:28;;;;;;;6.23;4.63;;;;;;;13.97;69.11;101366.78;4991482;28;20480;-70
2023/05/02 09:06:06;;;;;;;12.80;11.60;;;;;;;14.13;68.64;101366.34;4990319;28;20436;-71
2023/05/02 09:08:36;;;;;;;6.67;5.23;;;;;;;14.33;68.19;101379.84;4987722;28;20795;-71
2023/05/02 09:11:06;;;;;;;6.83;4.80;;;;;;;14.34;67.78;101381.53;4998030;28;21006;-72
2023/05/02 09:13:37;;;;;;;8.73;5.50;;;;;;;14.34;67.50;101389.69;4983994;28;20432;-70
2023/05/02 09:16:10;;;;;;;6.60;4.43;;;;;;;13.95;69.18;101401.53;4985258;28;20442;-69
2023/05/02 09:18:41;;;;;;;4.93;4.07;;;;;;;13.80;70.09;101398.19;4999883;28;20401;-69
2023/05/02 09:21:12;;;;;;;6.27;4.97;;;;;;;13.63;71.45;101410.56;5000234;28;20445;-69
2023/05/02 09:23:43;;;;;;;10.83;5.50;;;;;;;13.61;71.58;101405.31;5006532;28;20435;-70
2023/05/02 09:26:18;;;;;;;6.80;5.60;;;;;;;13.86;71.25;101411.81;5003014;28;20522;-70
2023/05/02 09:28:49;;;;;;;6.37;4.17;;;;;;;13.94;70.65;101416.19;4996229;28;20475;-70
2023/05/02 09:31:20;;;;;;;8.50;5.03;;;;;;;13.91;70.41;101408.44;4991823;28;20443;-70
2023/05/02 09:34:12;;;;;;;8.90;5.40;;;;;;;13.85;70.89;101423.72;4988190;28;20577;-70
2023/05/02 09:36:42;;;;;;;6.77;4.93;;;;;;;14.02;70.77;101421.41;4993956;28;20430;-69
2023/05/02 09:39:13;;;;;;;10.93;5.80;;;;;;;14.22;70.08;101424.94;4994785;28;20811;-70
2023/05/02 09:41:44;;;;;;;7.30;5.70;;;;;;;14.23;69.64;101423.06;4988584;28;20442;-70
2023/05/02 09:44:14;;;;;;;7.23;4.93;;;;;;;14.58;68.66;101431.75;4987292;28;21083;-69
2023/05/02 09:46:46;;;;;;;5.63;3.83;;;;;;;15.10;66.06;101423.31;4993122;28;20421;-70
2023/05/02 09:49:18;;;;;;;7.20;5.20;;;;;;;15.33;64.70;101427.38;4987960;28;20433;-69
2023/05/02 09:51:48;;;;;;;4.60;3.23;;;;;;;15.39;64.99;101424.59;4991848;28;20403;-69
2023/05/02 09:54:36;;;;;;;5.47;3.50;;;;;;;15.15;64.16;101430.84;4997318;28;20482;-69
2023/05/02 09:57:06;;;;;;;5.77;4.23;;;;;;;14.93;64.93;101427.59;4985436;28;20785;-69
2023/05/02 09:59:35;;;;;;;5.53;3.60;;;;;;;15.45;64.31;101439.22;4991055;28;20434;-69
2023/05/02 10:02:09;;;;;;;4.60;3.03;;;;;;;15.76;61.52;101433.78;4988542;28;20422;-70
2023/05/02 10:04:40;;;;;;;3.87;3.33;;;;;;;15.56;62.39;101438.56;4991362;28;20476;-69
2023/05/02 10:07:10;;;;;;;6.23;4.17;;;;;;;15.28;63.90;101441.66;4989225;28;20414;-70
2023/05/02 10:09:43;;;;;;;6.07;3.73;;;;;;;14.82;65.36;101447.34;4998073;28;20470;-70
2023/05/02 10:12:15;;;;;;;7.20;3.10;;;;;;;14.76;65.44;101453.69;4995693;28;20409;-70
2023/05/02 10:14:50;;;;;;;5.30;3.57;;;;;;;14.64;65.30;101463.56;4994526;28;20424;-71
2023/05/02 10:17:28;;;;;;;3.77;2.67;;;;;;;14.41;66.37;101471.41;4995724;28;20456;-70
2023/05/02 10:20:01;;;;;;;6.17;4.50;;;;;;;14.49;66.84;101472.00;4993388;28;20767;-70
2023/05/02 10:22:33;;;;;;;8.40;4.17;;;;;;;14.05;68.45;101486.28;4986434;28;20406;-69
2023/05/02 10:25:03;;;;;;;6.13;4.27;;;;;;;14.13;69.25;101477.94;5000074;28;20424;-69
2023/05/02 10:27:33;;;;;;;10.70;3.73;;;;;;;14.34;68.39;101479.53;4990064;28;20444;-69
2023/05/02 10:30:05;;;;;;;6.93;3.77;;;;;;;14.14;68.99;101487.75;4998529;28;20437;-69
2023/05/02 10:32:38;;;;;;;6.37;3.30;;;;;;;13.97;69.23;101500.13;4993084;28;20952;-69
2023/05/02 10:35:08;;;;;;;3.47;2.30;;;;;;;13.41;70.77;101505.06;4993500;28;20441;-70
2023/05/02 10:37:39;;;;;;;4.00;3.07;;;;;;;12.95;73.08;101516.63;4994694;28;20443;-70
2023/05/02 10:40:11;;;;;;;4.40;3.30;;;;;;;12.85;73.79;101515.31;4992634;28;20409;-70
2023/05/02 10:42:44;;;;;;;4.80;2.87;;;;;;;12.36;75.71;101529.88;4992592;28;20435;-69
2023/05/02 10:45:30;;;;;;;14.27;3.90;;;;;;;12.17;76.42;101525.97;4991656;28;20473;-71
2023/05/02 10:48:21;;;;;;;6.23;3.10;;;;;;;12.16;77.28;101528.88;4991909;28;20476;-71
2023/05/02 10:50:51;;;;;;;7.63;3.73;;;;;;;12.38;76.78;101537.81;4994512;28;20407;-71
2023/05/02 10:53:29;;;;;;;6.67;4.70;;;;;;;12.64;75.11;101546.97;4988649;28;21030;-70
2023/05/02 10:56:14;;;;;;;8.40;5.87;;;;;;;12.34;75.47;101553.66;4991558;28;20402;-69
2023/05/02 10:58:44;;;;;;;8.80;5.90;;;;;;;11.97;77.98;101568.38;4992115;28;20412;-72
2023/05/02 11:01:35;;;;;;;7.07;5.57;;;;;;;11.60;79.02;101561.31;5002156;28;20407;-69
2023/05/02 11:04:08;;;;;;;10.20;7.23;;;;;;;11.65;79.02;101568.88;4989809;28;20493;-70
2023/05/02 11:06:59;;;;;;;6.90;4.80;;;;;;;11.25;79.29;101570.28;4993975;28;20422;-73
2023/05/02 11:09:35;;;;;;;8.93;6.17;;;;;;;11.40;78.41;101578.38;4988777;28;20475;-71
2023/05/02 11:12:05;;;;;;;10.63;5.13;;;;;;;11.08;78.29;101582.38;4987937;28;20419;-70
2023/05/02 11:14:47;;;;;;;5.70;4.63;;;;;;;10.89;78.00;101575.69;5003308;28;20434;-70
2023/05/02 11:17:25;;;;;;;10.53;5.63;;;;;;;11.19;75.78;101584.59;4996477;28;20435;-69
2023/05/02 11:20:26;;;;;;;13.77;6.50;;;;;;;11.45;74.54;101593.03;4994847;28;20411;-71
2023/05/02 11:23:00;;;;;;;9.27;5.97;;;;;;;11.58;72.65;101587.75;4991396;28;20408;-70
2023/05/02 11:25:35;;;;;;;10.47;4.70;;;;;;;11.71;71.11;101590.59;5000540;28;20463;-71
2023/05/02 11:28:28;;;;;;;7.17;5.47;;;;;;;11.64;70.61;101589.72;4991489;28;20404;-71
2023/05/02 11:30:57;;;;;;;13.53;5.83;;;;;;;11.84;69.28;101589.13;5002107;28;20427;-72
2023/05/02 11:33:28;;;;;;;16.90;6.50;;;;;;;12.19;66.77;101604.47;4995391;28;20491;-71
2023/05/02 11:35:58;;;;;;;6.20;4.40;;;;;;;11.92;66.42;101600.66;4993974;28;20447;-70
2023/05/02 11:38:37;;;;;;;7.37;3.90;;;;;;;12.32;65.75;101601.88;4990534;28;20433;-71
2023/05/02 11:41:06;;;;;;;8.13;3.83;;;;;;;12.78;64.36;101614.94;4992352;28;20751;-69
2023/05/02 11:43:35;;;;;;;6.67;3.40;;;;;;;13.02;61.75;101612.56;4998329;28;20496;-69
2023/05/02 11:46:06;;;;;;;6.60;5.80;;;;;;;12.69;61.27;101616.97;4990423;28;20485;-69
2023/05/02 11:48:36;;;;;;;12.00;3.90;;;;;;;12.48;62.08;101608.88;4997231;28;20450;-70